sensor_id;sensor_type;location;lat;lon;timestamp;P1;durP1;ratioP1;P2;durP2;ratioP2
9224;SDS011;4647;48.072;11.616;2023-06-10T00:00:55;9.80;;;7.67;;
9224;SDS011;4647;48.072;11.616;2023-06-10T00:03:24;8.30;;;7.53;;
9224;SDS011;4647;48.072;11.616;2023-06-10T00:05:53;8.90;;;8.13;;
9224;SDS011;4647;48.072;11.616;2023-06-10T00:08:24;9.03;;;8.33;;
9224;SDS011;4647;48.072;11.616;2023-06-10T00:10:56;9.30;;;8.53;;
9224;SDS011;4647;48.072;11.616;2023-06-10T00:13:25;10.07;;;8.70;;
9224;SDS011;4647;48.072;11.616;2023-06-10T00:15:53;10.30;;;9.27;;
9224;SDS011;4647;48.072;11.616;2023-06-10T00:18:22;10.10;;;9.17;;
9224;SDS011;4647;48.072;11.616;2023-06-10T00:20:52;9.33;;;8.60;;
9224;SDS011;4647;48.072;11.616;2023-06-10T00:23:25;10.00;;;9.20;;
9224;SDS011;4647;48.072;11.616;2023-06-10T00:25:56;9.53;;;8.63;;
9224;SDS011;4647;48.072;11.616;2023-06-10T00:28:24;9.50;;;8.70;;
9224;SDS011;4647;48.072;11.616;2023-06-10T00:30:53;11.07;;;10.00;;
9224;SDS011;4647;48.072;11.616;2023-06-10T00:33:22;9.70;;;8.70;;
9224;SDS011;4647;48.072;11.616;2023-06-10T00:35:51;9.40;;;8.63;;
9224;SDS011;4647;48.072;11.616;2023-06-10T00:38:19;11.50;;;9.03;;
9224;SDS011;4647;48.072;11.616;2023-06-10T00:40:51;10.23;;;9.33;;
9224;SDS011;4647;48.072;11.616;2023-06-10T00:43:19;10.83;;;9.43;;
9224;SDS011;4647;48.072;11.616;2023-06-10T00:45:48;9.07;;;8.37;;
9224;SDS011;4647;48.072;11.616;2023-06-10T00:48:17;9.87;;;9.07;;
9224;SDS011;4647;48.072;11.616;2023-06-10T00:50:45;10.10;;;9.23;;
9224;SDS011;4647;48.072;11.616;2023-06-10T00:53:14;11.67;;;9.07;;
9224;SDS011;4647;48.072;11.616;2023-06-10T00:55:43;10.27;;;9.17;;
9224;SDS011;4647;48.072;11.616;2023-06-10T00:58:14;10.67;;;9.67;;
9224;SDS011;4647;48.072;11.616;2023-06-10T01:00:43;10.70;;;9.47;;
9224;SDS011;4647;48.072;11.616;2023-06-10T01:03:12;10.93;;;9.93;;
9224;SDS011;4647;48.072;11.616;2023-06-10T01:05:42;11.27;;;10.33;;
9224;SDS011;4647;48.072;11.616;2023-06-10T01:08:16;10.97;;;9.87;;
9224;SDS011;4647;48.072;11.616;2023-06-10T01:10:57;10.10;;;9.10;;
9224;SDS011;4647;48.072;11.616;2023-06-10T01:13:30;10.67;;;9.60;;
9224;SDS011;4647;48.072;11.616;2023-06-10T01:16:00;11.47;;;10.53;;
9224;SDS011;4647;48.072;11.616;2023-06-10T01:18:29;11.33;;;10.37;;
9224;SDS011;4647;48.072;11.616;2023-06-10T01:20:58;10.70;;;9.80;;
9224;SDS011;4647;48.072;11.616;2023-06-10T01:23:29;11.10;;;10.17;;
9224;SDS011;4647;48.072;11.616;2023-06-10T01:25:59;10.80;;;9.90;;
9224;SDS011;4647;48.072;11.616;2023-06-10T01:28:31;10.00;;;9.20;;
9224;SDS011;4647;48.072;11.616;2023-06-10T01:31:06;11.37;;;10.37;;
9224;SDS011;4647;48.072;11.616;2023-06-10T01:33:41;10.67;;;9.70;;
9224;SDS011;4647;48.072;11.616;2023-06-10T01:36:11;10.00;;;9.20;;
9224;SDS011;4647;48.072;11.616;2023-06-10T01:38:43;11.13;;;10.03;;
9224;SDS011;4647;48.072;11.616;2023-06-10T01:41:15;9.97;;;9.07;;
9224;SDS011;4647;48.072;11.616;2023-06-10T01:43:46;10.93;;;9.90;;
9224;SDS011;4647;48.072;11.616;2023-06-10T01:46:16;10.97;;;9.97;;
9224;SDS011;4647;48.072;11.616;2023-06-10T01:48:46;11.63;;;10.67;;
9224;SDS011;4647;48.072;11.616;2023-06-10T01:51:15;10.77;;;9.87;;
9224;SDS011;4647;48.072;11.616;2023-06-10T01:53:46;11.20;;;10.30;;
9224;SDS011;4647;48.072;11.616;2023-06-10T01:56:14;10.33;;;9.43;;
9224;SDS011;4647;48.072;11.616;2023-06-10T01:58:45;10.93;;;10.03;;
9224;SDS011;4647;48.072;11.616;2023-06-10T02:01:13;11.53;;;10.47;;
9224;SDS011;4647;48.072;11.616;2023-06-10T02:03:42;11.57;;;10.57;;
9224;SDS011;4647;48.072;11.616;2023-06-10T02:06:10;11.03;;;10.13;;
9224;SDS011;4647;48.072;11.616;2023-06-10T02:08:39;10.83;;;9.93;;
9224;SDS011;4647;48.072;11.616;2023-06-10T02:11:10;10.80;;;9.70;;
9224;SDS011;4647;48.072;11.616;2023-06-10T02:13:38;12.53;;;11.33;;
9224;SDS011;4647;48.072;11.616;2023-06-10T02:16:07;11.17;;;10.27;;
9224;SDS011;4647;48.072;11.616;2023-06-10T02:18:37;11.03;;;10.13;;
9224;SDS011;4647;48.072;11.616;2023-06-10T02:21:08;10.57;;;9.63;;
9224;SDS011;4647;48.072;11.616;2023-06-10T02:23:36;9.87;;;9.10;;
9224;SDS011;4647;48.072;11.616;2023-06-10T02:26:05;11.17;;;10.27;;
9224;SDS011;4647;48.072;11.616;2023-06-10T02:28:36;11.30;;;10.33;;
9224;SDS011;4647;48.072;11.616;2023-06-10T02:31:04;10.77;;;9.87;;
9224;SDS011;4647;48.072;11.616;2023-06-10T02:33:33;12.43;;;11.40;;
9224;SDS011;4647;48.072;11.616;2023-06-10T02:36:05;12.80;;;11.60;;
9224;SDS011;4647;48.072;11.616;2023-06-10T02:38:34;11.60;;;10.50;;
9224;SDS011;4647;48.072;11.616;2023-06-10T02:41:02;10.73;;;9.83;;
9224;SDS011;4647;48.072;11.616;2023-06-10T02:43:30;11.90;;;10.90;;
9224;SDS011;4647;48.072;11.616;2023-06-10T02:46:01;11.83;;;10.83;;
9224;SDS011;4647;48.072;11.616;2023-06-10T02:48:30;12.00;;;10.90;;
9224;SDS011;4647;48.072;11.616;2023-06-10T02:50:58;11.80;;;10.73;;
9224;SDS011;4647;48.072;11.616;2023-06-10T02:53:27;9.53;;;8.63;;
9224;SDS011;4647;48.072;11.616;2023-06-10T02:55:55;11.10;;;10.10;;
9224;SDS011;4647;48.072;11.616;2023-06-10T02:58:24;10.27;;;9.40;;
9224;SDS011;4647;48.072;11.616;2023-06-10T03:00:52;9.70;;;8.90;;
9224;SDS011;4647;48.072;11.616;2023-06-10T03:03:24;8.37;;;7.67;;
9224;SDS011;4647;48.072;11.616;2023-06-10T03:05:52;9.67;;;8.87;;
9224;SDS011;4647;48.072;11.616;2023-06-10T03:08:21;8.70;;;8.00;;
9224;SDS011;4647;48.072;11.616;2023-06-10T03:10:50;9.27;;;8.57;;
9224;SDS011;4647;48.072;11.616;2023-06-10T03:13:18;10.10;;;9.10;;
9224;SDS011;4647;48.072;11.616;2023-06-10T03:15:47;9.50;;;8.57;;
9224;SDS011;4647;48.072;11.616;2023-06-10T03:18:15;9.53;;;8.80;;
9224;SDS011;4647;48.072;11.616;2023-06-10T03:20:46;10.47;;;9.67;;
9224;SDS011;4647;48.072;11.616;2023-06-10T03:23:16;10.20;;;9.20;;
9224;SDS011;4647;48.072;11.616;2023-06-10T03:25:45;9.67;;;8.87;;
9224;SDS011;4647;48.072;11.616;2023-06-10T03:28:14;10.57;;;9.67;;
9224;SDS011;4647;48.072;11.616;2023-06-10T03:30:43;10.13;;;9.23;;
9224;SDS011;4647;48.072;11.616;2023-06-10T03:33:12;10.30;;;9.40;;
9224;SDS011;4647;48.072;11.616;2023-06-10T03:35:46;10.10;;;9.13;;
9224;SDS011;4647;48.072;11.616;2023-06-10T03:38:14;9.87;;;9.03;;
9224;SDS011;4647;48.072;11.616;2023-06-10T03:40:43;10.57;;;9.50;;
9224;SDS011;4647;48.072;11.616;2023-06-10T03:43:11;10.07;;;9.17;;
9224;SDS011;4647;48.072;11.616;2023-06-10T03:45:40;9.77;;;9.00;;
9224;SDS011;4647;48.072;11.616;2023-06-10T03:48:09;11.23;;;9.47;;
9224;SDS011;4647;48.072;11.616;2023-06-10T03:50:37;10.17;;;9.20;;
9224;SDS011;4647;48.072;11.616;2023-06-10T03:53:08;10.53;;;8.13;;
9224;SDS011;4647;48.072;11.616;2023-06-10T03:55:37;8.37;;;7.77;;
9224;SDS011;4647;48.072;11.616;2023-06-10T03:58:06;8.60;;;7.80;;
9224;SDS011;4647;48.072;11.616;2023-06-10T04:00:34;8.43;;;7.63;;
9224;SDS011;4647;48.072;11.616;2023-06-10T04:03:06;8.37;;;7.67;;
9224;SDS011;4647;48.072;11.616;2023-06-10T04:05:39;8.27;;;7.30;;
9224;SDS011;4647;48.072;11.616;2023-06-10T04:08:10;8.10;;;7.30;;
9224;SDS011;4647;48.072;11.616;2023-06-10T04:10:39;8.60;;;7.90;;
9224;SDS011;4647;48.072;11.616;2023-06-10T04:13:07;8.60;;;7.43;;
9224;SDS011;4647;48.072;11.616;2023-06-10T04:15:35;8.50;;;7.60;;
9224;SDS011;4647;48.072;11.616;2023-06-10T04:18:04;7.83;;;7.00;;
9224;SDS011;4647;48.072;11.616;2023-06-10T04:20:33;7.33;;;6.73;;
9224;SDS011;4647;48.072;11.616;2023-06-10T04:23:02;8.47;;;7.67;;
9224;SDS011;4647;48.072;11.616;2023-06-10T04:25:33;7.73;;;7.03;;
9224;SDS011;4647;48.072;11.616;2023-06-10T04:28:01;8.03;;;7.43;;
9224;SDS011;4647;48.072;11.616;2023-06-10T04:30:30;7.87;;;7.17;;
9224;SDS011;4647;48.072;11.616;2023-06-10T04:32:59;8.43;;;7.20;;
9224;SDS011;4647;48.072;11.616;2023-06-10T04:35:27;8.03;;;7.23;;
9224;SDS011;4647;48.072;11.616;2023-06-10T04:37:56;7.97;;;7.27;;
9224;SDS011;4647;48.072;11.616;2023-06-10T04:40:25;8.80;;;7.87;;
9224;SDS011;4647;48.072;11.616;2023-06-10T04:42:56;7.77;;;7.17;;
9224;SDS011;4647;48.072;11.616;2023-06-10T04:45:24;9.43;;;8.00;;
9224;SDS011;4647;48.072;11.616;2023-06-10T04:47:54;8.33;;;7.63;;
9224;SDS011;4647;48.072;11.616;2023-06-10T04:50:23;8.00;;;7.40;;
9224;SDS011;4647;48.072;11.616;2023-06-10T04:52:52;9.77;;;8.77;;
9224;SDS011;4647;48.072;11.616;2023-06-10T04:55:22;10.70;;;8.40;;
9224;SDS011;4647;48.072;11.616;2023-06-10T04:57:50;8.37;;;7.70;;
9224;SDS011;4647;48.072;11.616;2023-06-10T05:00:22;8.90;;;8.10;;
9224;SDS011;4647;48.072;11.616;2023-06-10T05:02:50;8.50;;;7.80;;
9224;SDS011;4647;48.072;11.616;2023-06-10T05:05:19;8.80;;;7.80;;
9224;SDS011;4647;48.072;11.616;2023-06-10T05:07:47;8.17;;;7.57;;
9224;SDS011;4647;48.072;11.616;2023-06-10T05:10:16;9.23;;;8.53;;
9224;SDS011;4647;48.072;11.616;2023-06-10T05:12:45;9.37;;;8.33;;
9224;SDS011;4647;48.072;11.616;2023-06-10T05:15:13;8.90;;;8.10;;
9224;SDS011;4647;48.072;11.616;2023-06-10T05:17:44;9.97;;;9.17;;
9224;SDS011;4647;48.072;11.616;2023-06-10T05:20:13;9.60;;;8.80;;
9224;SDS011;4647;48.072;11.616;2023-06-10T05:22:41;10.70;;;8.70;;
9224;SDS011;4647;48.072;11.616;2023-06-10T05:25:10;11.03;;;9.97;;
9224;SDS011;4647;48.072;11.616;2023-06-10T05:27:38;10.30;;;9.30;;
9224;SDS011;4647;48.072;11.616;2023-06-10T05:30:08;10.73;;;9.93;;
9224;SDS011;4647;48.072;11.616;2023-06-10T05:32:37;10.53;;;9.63;;
9224;SDS011;4647;48.072;11.616;2023-06-10T05:35:09;10.13;;;9.23;;
9224;SDS011;4647;48.072;11.616;2023-06-10T05:37:37;10.73;;;9.87;;
9224;SDS011;4647;48.072;11.616;2023-06-10T05:40:06;10.47;;;9.57;;
9224;SDS011;4647;48.072;11.616;2023-06-10T05:42:36;11.53;;;10.53;;
9224;SDS011;4647;48.072;11.616;2023-06-10T05:45:05;10.17;;;9.27;;
9224;SDS011;4647;48.072;11.616;2023-06-10T05:47:34;11.27;;;10.30;;
9224;SDS011;4647;48.072;11.616;2023-06-10T05:50:03;11.17;;;10.10;;
9224;SDS011;4647;48.072;11.616;2023-06-10T05:52:37;10.10;;;9.20;;
9224;SDS011;4647;48.072;11.616;2023-06-10T05:55:06;10.40;;;9.50;;
9224;SDS011;4647;48.072;11.616;2023-06-10T05:57:35;9.50;;;8.80;;
9224;SDS011;4647;48.072;11.616;2023-06-10T06:00:04;11.13;;;10.23;;
9224;SDS011;4647;48.072;11.616;2023-06-10T06:02:34;10.30;;;9.50;;
9224;SDS011;4647;48.072;11.616;2023-06-10T06:05:03;12.03;;;11.03;;
9224;SDS011;4647;48.072;11.616;2023-06-10T06:07:32;10.67;;;9.83;;
9224;SDS011;4647;48.072;11.616;2023-06-10T06:10:03;11.33;;;10.43;;
9224;SDS011;4647;48.072;11.616;2023-06-10T06:12:32;12.00;;;10.80;;
9224;SDS011;4647;48.072;11.616;2023-06-10T06:15:01;12.97;;;11.97;;
9224;SDS011;4647;48.072;11.616;2023-06-10T06:17:30;12.53;;;11.40;;
9224;SDS011;4647;48.072;11.616;2023-06-10T06:19:58;11.43;;;10.53;;
9224;SDS011;4647;48.072;11.616;2023-06-10T06:22:27;13.47;;;11.97;;
9224;SDS011;4647;48.072;11.616;2023-06-10T06:24:55;13.27;;;12.07;;
9224;SDS011;4647;48.072;11.616;2023-06-10T06:27:26;12.87;;;11.77;;
9224;SDS011;4647;48.072;11.616;2023-06-10T06:29:55;12.43;;;11.43;;
9224;SDS011;4647;48.072;11.616;2023-06-10T06:32:24;13.40;;;11.30;;
9224;SDS011;4647;48.072;11.616;2023-06-10T06:34:53;12.23;;;11.20;;
9224;SDS011;4647;48.072;11.616;2023-06-10T06:37:22;12.87;;;11.70;;
9224;SDS011;4647;48.072;11.616;2023-06-10T06:39:51;13.20;;;11.80;;
9224;SDS011;4647;48.072;11.616;2023-06-10T06:42:20;11.87;;;10.90;;
9224;SDS011;4647;48.072;11.616;2023-06-10T06:44:51;11.47;;;10.37;;
9224;SDS011;4647;48.072;11.616;2023-06-10T06:47:20;11.53;;;10.50;;
9224;SDS011;4647;48.072;11.616;2023-06-10T06:49:49;11.53;;;10.63;;
9224;SDS011;4647;48.072;11.616;2023-06-10T06:52:17;10.90;;;9.93;;
9224;SDS011;4647;48.072;11.616;2023-06-10T06:54:47;11.10;;;10.10;;
9224;SDS011;4647;48.072;11.616;2023-06-10T06:57:15;10.70;;;9.70;;
9224;SDS011;4647;48.072;11.616;2023-06-10T06:59:44;11.63;;;10.70;;
9224;SDS011;4647;48.072;11.616;2023-06-10T07:02:15;11.47;;;10.40;;
9224;SDS011;4647;48.072;11.616;2023-06-10T07:04:44;11.63;;;10.63;;
9224;SDS011;4647;48.072;11.616;2023-06-10T07:07:14;10.20;;;9.30;;
9224;SDS011;4647;48.072;11.616;2023-06-10T07:09:42;10.93;;;9.93;;
9224;SDS011;4647;48.072;11.616;2023-06-10T07:12:10;11.23;;;10.20;;
9224;SDS011;4647;48.072;11.616;2023-06-10T07:14:39;11.07;;;9.90;;
9224;SDS011;4647;48.072;11.616;2023-06-10T07:17:07;10.63;;;9.73;;
9224;SDS011;4647;48.072;11.616;2023-06-10T07:19:38;11.07;;;10.17;;
9224;SDS011;4647;48.072;11.616;2023-06-10T07:22:07;10.83;;;9.90;;
9224;SDS011;4647;48.072;11.616;2023-06-10T07:24:35;10.73;;;9.83;;
9224;SDS011;4647;48.072;11.616;2023-06-10T07:27:04;9.87;;;9.07;;
9224;SDS011;4647;48.072;11.616;2023-06-10T07:29:33;10.33;;;9.20;;
9224;SDS011;4647;48.072;11.616;2023-06-10T07:32:03;9.90;;;9.10;;
9224;SDS011;4647;48.072;11.616;2023-06-10T07:34:34;9.73;;;8.87;;
9224;SDS011;4647;48.072;11.616;2023-06-10T07:37:05;9.83;;;8.93;;
9224;SDS011;4647;48.072;11.616;2023-06-10T07:39:34;10.47;;;9.53;;
9224;SDS011;4647;48.072;11.616;2023-06-10T07:42:02;10.60;;;9.60;;
9224;SDS011;4647;48.072;11.616;2023-06-10T07:44:31;8.90;;;8.20;;
9224;SDS011;4647;48.072;11.616;2023-06-10T07:47:00;7.87;;;7.27;;
9224;SDS011;4647;48.072;11.616;2023-06-10T07:49:28;8.10;;;7.40;;
9224;SDS011;4647;48.072;11.616;2023-06-10T07:51:57;7.97;;;7.27;;
9224;SDS011;4647;48.072;11.616;2023-06-10T07:54:28;8.10;;;7.37;;
9224;SDS011;4647;48.072;11.616;2023-06-10T07:56:56;7.07;;;6.57;;
9224;SDS011;4647;48.072;11.616;2023-06-10T07:59:25;8.70;;;8.00;;
9224;SDS011;4647;48.072;11.616;2023-06-10T08:01:53;10.57;;;9.70;;
9224;SDS011;4647;48.072;11.616;2023-06-10T08:04:22;8.90;;;8.20;;
9224;SDS011;4647;48.072;11.616;2023-06-10T08:06:50;8.07;;;7.43;;
9224;SDS011;4647;48.072;11.616;2023-06-10T08:09:19;8.97;;;8.27;;
9224;SDS011;4647;48.072;11.616;2023-06-10T08:11:50;8.63;;;7.77;;
9224;SDS011;4647;48.072;11.616;2023-06-10T08:14:20;9.27;;;8.37;;
9224;SDS011;4647;48.072;11.616;2023-06-10T08:16:49;8.80;;;8.10;;
9224;SDS011;4647;48.072;11.616;2023-06-10T08:19:17;8.77;;;7.97;;
9224;SDS011;4647;48.072;11.616;2023-06-10T08:21:46;8.53;;;7.90;;
9224;SDS011;4647;48.072;11.616;2023-06-10T08:24:14;6.20;;;5.37;;
9224;SDS011;4647;48.072;11.616;2023-06-10T08:26:43;6.30;;;5.70;;
9224;SDS011;4647;48.072;11.616;2023-06-10T08:29:14;6.33;;;5.53;;
9224;SDS011;4647;48.072;11.616;2023-06-10T08:31:43;6.27;;;5.77;;
9224;SDS011;4647;48.072;11.616;2023-06-10T08:34:12;7.80;;;6.97;;
9224;SDS011;4647;48.072;11.616;2023-06-10T08:36:41;7.27;;;6.50;;
9224;SDS011;4647;48.072;11.616;2023-06-10T08:39:11;7.33;;;6.67;;
9224;SDS011;4647;48.072;11.616;2023-06-10T08:41:43;7.07;;;6.47;;
9224;SDS011;4647;48.072;11.616;2023-06-10T08:44:26;6.33;;;5.73;;
9224;SDS011;4647;48.072;11.616;2023-06-10T08:46:58;6.73;;;6.13;;
9224;SDS011;4647;48.072;11.616;2023-06-10T08:49:29;7.67;;;5.63;;
9224;SDS011;4647;48.072;11.616;2023-06-10T08:52:02;6.57;;;6.07;;
9224;SDS011;4647;48.072;11.616;2023-06-10T08:54:32;7.13;;;6.43;;
9224;SDS011;4647;48.072;11.616;2023-06-10T08:57:03;6.27;;;5.77;;
9224;SDS011;4647;48.072;11.616;2023-06-10T08:59:36;5.93;;;5.53;;
9224;SDS011;4647;48.072;11.616;2023-06-10T09:02:05;5.50;;;5.10;;
9224;SDS011;4647;48.072;11.616;2023-06-10T09:04:35;6.00;;;5.40;;
9224;SDS011;4647;48.072;11.616;2023-06-10T09:07:05;6.20;;;5.43;;
9224;SDS011;4647;48.072;11.616;2023-06-10T09:09:34;5.87;;;5.47;;
9224;SDS011;4647;48.072;11.616;2023-06-10T09:12:04;5.17;;;4.77;;
9224;SDS011;4647;48.072;11.616;2023-06-10T09:14:33;4.87;;;4.57;;
9224;SDS011;4647;48.072;11.616;2023-06-10T09:17:05;5.10;;;4.70;;
9224;SDS011;4647;48.072;11.616;2023-06-10T09:19:34;6.07;;;5.30;;
9224;SDS011;4647;48.072;11.616;2023-06-10T09:22:04;5.20;;;4.70;;
9224;SDS011;4647;48.072;11.616;2023-06-10T09:24:34;6.33;;;4.63;;
9224;SDS011;4647;48.072;11.616;2023-06-10T09:27:04;5.50;;;5.00;;
9224;SDS011;4647;48.072;11.616;2023-06-10T09:29:48;4.90;;;4.50;;
9224;SDS011;4647;48.072;11.616;2023-06-10T09:32:20;5.30;;;4.80;;
9224;SDS011;4647;48.072;11.616;2023-06-10T09:34:49;5.43;;;4.60;;
9224;SDS011;4647;48.072;11.616;2023-06-10T09:37:21;4.97;;;4.47;;
9224;SDS011;4647;48.072;11.616;2023-06-10T09:40:03;5.80;;;5.40;;
9224;SDS011;4647;48.072;11.616;2023-06-10T09:42:34;5.50;;;5.00;;
9224;SDS011;4647;48.072;11.616;2023-06-10T09:45:06;6.13;;;5.50;;
9224;SDS011;4647;48.072;11.616;2023-06-10T09:47:35;6.80;;;6.20;;
9224;SDS011;4647;48.072;11.616;2023-06-10T09:50:04;6.50;;;5.90;;
9224;SDS011;4647;48.072;11.616;2023-06-10T09:52:33;6.00;;;5.50;;
9224;SDS011;4647;48.072;11.616;2023-06-10T09:55:02;5.83;;;5.43;;
9224;SDS011;4647;48.072;11.616;2023-06-10T09:57:31;5.73;;;5.23;;
9224;SDS011;4647;48.072;11.616;2023-06-10T10:00:07;5.70;;;5.23;;
9224;SDS011;4647;48.072;11.616;2023-06-10T10:02:43;6.10;;;5.60;;
9224;SDS011;4647;48.072;11.616;2023-06-10T10:05:13;6.33;;;5.80;;
9224;SDS011;4647;48.072;11.616;2023-06-10T10:07:42;7.90;;;6.20;;
9224;SDS011;4647;48.072;11.616;2023-06-10T10:10:12;6.70;;;6.13;;
9224;SDS011;4647;48.072;11.616;2023-06-10T10:12:42;7.37;;;6.27;;
9224;SDS011;4647;48.072;11.616;2023-06-10T10:15:13;6.00;;;5.60;;
9224;SDS011;4647;48.072;11.616;2023-06-10T10:17:46;6.40;;;5.80;;
9224;SDS011;4647;48.072;11.616;2023-06-10T10:20:22;5.40;;;5.00;;
9224;SDS011;4647;48.072;11.616;2023-06-10T10:22:55;5.93;;;5.43;;
9224;SDS011;4647;48.072;11.616;2023-06-10T10:25:25;5.77;;;5.27;;
9224;SDS011;4647;48.072;11.616;2023-06-10T10:27:57;5.30;;;4.87;;
9224;SDS011;4647;48.072;11.616;2023-06-10T10:30:33;6.60;;;5.13;;
9224;SDS011;4647;48.072;11.616;2023-06-10T10:33:09;6.10;;;5.70;;
9224;SDS011;4647;48.072;11.616;2023-06-10T10:35:43;5.67;;;5.17;;
9224;SDS011;4647;48.072;11.616;2023-06-10T10:38:13;5.03;;;4.63;;
9224;SDS011;4647;48.072;11.616;2023-06-10T10:40:43;5.40;;;4.97;;
9224;SDS011;4647;48.072;11.616;2023-06-10T10:43:12;5.00;;;4.50;;
9224;SDS011;4647;48.072;11.616;2023-06-10T10:45:46;5.53;;;5.03;;
9224;SDS011;4647;48.072;11.616;2023-06-10T10:48:25;5.53;;;5.13;;
9224;SDS011;4647;48.072;11.616;2023-06-10T10:50:58;5.07;;;4.67;;
9224;SDS011;4647;48.072;11.616;2023-06-10T10:53:27;6.43;;;4.97;;
9224;SDS011;4647;48.072;11.616;2023-06-10T10:55:59;5.17;;;4.77;;
9224;SDS011;4647;48.072;11.616;2023-06-10T10:58:27;6.10;;;5.00;;
9224;SDS011;4647;48.072;11.616;2023-06-10T11:01:00;5.63;;;5.17;;
9224;SDS011;4647;48.072;11.616;2023-06-10T11:03:42;5.20;;;4.83;;
9224;SDS011;4647;48.072;11.616;2023-06-10T11:06:13;6.27;;;4.93;;
9224;SDS011;4647;48.072;11.616;2023-06-10T11:08:46;5.33;;;4.90;;
9224;SDS011;4647;48.072;11.616;2023-06-10T11:11:19;9.00;;;4.67;;
9224;SDS011;4647;48.072;11.616;2023-06-10T11:14:04;5.23;;;4.37;;
9224;SDS011;4647;48.072;11.616;2023-06-10T11:16:42;6.00;;;4.93;;
9224;SDS011;4647;48.072;11.616;2023-06-10T11:22:15;4.80;;;4.40;;
9224;SDS011;4647;48.072;11.616;2023-06-10T11:24:48;4.83;;;4.10;;
9224;SDS011;4647;48.072;11.616;2023-06-10T11:27:18;4.50;;;4.10;;
9224;SDS011;4647;48.072;11.616;2023-06-10T11:32:52;3.97;;;3.67;;
9224;SDS011;4647;48.072;11.616;2023-06-10T11:35:22;4.33;;;3.90;;
9224;SDS011;4647;48.072;11.616;2023-06-10T11:37:57;4.17;;;3.83;;
9224;SDS011;4647;48.072;11.616;2023-06-10T11:40:26;4.30;;;4.00;;
9224;SDS011;4647;48.072;11.616;2023-06-10T11:42:55;4.20;;;3.90;;
9224;SDS011;4647;48.072;11.616;2023-06-10T13:34:03;5.20;;;4.80;;
9224;SDS011;4647;48.072;11.616;2023-06-10T13:36:32;5.10;;;4.70;;
9224;SDS011;4647;48.072;11.616;2023-06-10T13:39:03;5.20;;;4.67;;
9224;SDS011;4647;48.072;11.616;2023-06-10T13:41:32;4.60;;;4.20;;
9224;SDS011;4647;48.072;11.616;2023-06-10T13:44:06;5.03;;;4.63;;
9224;SDS011;4647;48.072;11.616;2023-06-10T13:46:35;5.00;;;4.50;;
9224;SDS011;4647;48.072;11.616;2023-06-10T13:49:12;4.67;;;4.27;;
9224;SDS011;4647;48.072;11.616;2023-06-10T13:51:42;4.30;;;4.00;;
9224;SDS011;4647;48.072;11.616;2023-06-10T13:54:11;4.37;;;3.73;;
9224;SDS011;4647;48.072;11.616;2023-06-10T13:56:40;4.20;;;3.80;;
9224;SDS011;4647;48.072;11.616;2023-06-10T13:59:09;4.20;;;3.80;;
9224;SDS011;4647;48.072;11.616;2023-06-10T14:01:40;4.47;;;4.07;;
9224;SDS011;4647;48.072;11.616;2023-06-10T14:04:12;3.80;;;3.50;;
9224;SDS011;4647;48.072;11.616;2023-06-10T14:06:41;4.53;;;3.67;;
9224;SDS011;4647;48.072;11.616;2023-06-10T14:09:10;3.67;;;3.30;;
9224;SDS011;4647;48.072;11.616;2023-06-10T14:11:43;3.70;;;2.87;;
9224;SDS011;4647;48.072;11.616;2023-06-10T14:14:12;3.80;;;3.50;;
9224;SDS011;4647;48.072;11.616;2023-06-10T14:16:44;3.40;;;3.10;;
9224;SDS011;4647;48.072;11.616;2023-06-10T14:19:15;3.20;;;3.00;;
9224;SDS011;4647;48.072;11.616;2023-06-10T14:21:44;3.50;;;3.30;;
9224;SDS011;4647;48.072;11.616;2023-06-10T14:24:12;5.40;;;3.07;;
9224;SDS011;4647;48.072;11.616;2023-06-10T14:26:40;4.97;;;3.77;;
9224;SDS011;4647;48.072;11.616;2023-06-10T14:29:09;3.63;;;3.30;;
9224;SDS011;4647;48.072;11.616;2023-06-10T14:31:45;4.33;;;4.03;;
9224;SDS011;4647;48.072;11.616;2023-06-10T14:34:19;4.20;;;3.80;;
9224;SDS011;4647;48.072;11.616;2023-06-10T14:36:48;3.90;;;3.60;;
9224;SDS011;4647;48.072;11.616;2023-06-10T14:39:19;4.27;;;3.87;;
9224;SDS011;4647;48.072;11.616;2023-06-10T14:41:47;5.07;;;4.57;;
9224;SDS011;4647;48.072;11.616;2023-06-10T14:44:17;4.40;;;4.10;;
9224;SDS011;4647;48.072;11.616;2023-06-10T14:46:49;4.20;;;3.80;;
9224;SDS011;4647;48.072;11.616;2023-06-10T14:49:21;3.97;;;3.50;;
9224;SDS011;4647;48.072;11.616;2023-06-10T14:51:51;4.47;;;3.47;;
9224;SDS011;4647;48.072;11.616;2023-06-10T14:54:20;3.90;;;3.60;;
9224;SDS011;4647;48.072;11.616;2023-06-10T14:56:49;3.97;;;3.67;;
9224;SDS011;4647;48.072;11.616;2023-06-10T14:59:18;3.50;;;3.20;;
9224;SDS011;4647;48.072;11.616;2023-06-10T15:01:46;3.90;;;3.57;;
9224;SDS011;4647;48.072;11.616;2023-06-10T15:04:17;3.57;;;3.27;;
9224;SDS011;4647;48.072;11.616;2023-06-10T15:06:48;3.37;;;3.07;;
9224;SDS011;4647;48.072;11.616;2023-06-10T15:09:17;3.23;;;3.00;;
9224;SDS011;4647;48.072;11.616;2023-06-10T15:11:45;4.50;;;3.50;;
9224;SDS011;4647;48.072;11.616;2023-06-10T15:14:14;4.73;;;4.33;;
9224;SDS011;4647;48.072;11.616;2023-06-10T15:16:44;5.30;;;4.70;;
9224;SDS011;4647;48.072;11.616;2023-06-10T15:19:13;6.53;;;4.27;;
9224;SDS011;4647;48.072;11.616;2023-06-10T15:21:41;5.23;;;4.37;;
9224;SDS011;4647;48.072;11.616;2023-06-10T15:24:16;4.67;;;4.30;;
9224;SDS011;4647;48.072;11.616;2023-06-10T15:26:45;5.23;;;4.13;;
9224;SDS011;4647;48.072;11.616;2023-06-10T15:29:13;4.47;;;4.07;;
9224;SDS011;4647;48.072;11.616;2023-06-10T15:31:42;6.37;;;4.23;;
9224;SDS011;4647;48.072;11.616;2023-06-10T15:34:11;4.33;;;4.03;;
9224;SDS011;4647;48.072;11.616;2023-06-10T15:36:39;4.10;;;3.80;;
9224;SDS011;4647;48.072;11.616;2023-06-10T15:39:08;6.47;;;4.13;;
9224;SDS011;4647;48.072;11.616;2023-06-10T15:41:41;6.13;;;4.40;;
9224;SDS011;4647;48.072;11.616;2023-06-10T15:44:09;4.27;;;3.97;;
9224;SDS011;4647;48.072;11.616;2023-06-10T15:46:38;4.00;;;3.70;;
9224;SDS011;4647;48.072;11.616;2023-06-10T15:49:09;5.77;;;4.60;;
9224;SDS011;4647;48.072;11.616;2023-06-10T15:51:38;4.63;;;4.23;;
9224;SDS011;4647;48.072;11.616;2023-06-10T15:54:12;5.50;;;4.40;;
9224;SDS011;4647;48.072;11.616;2023-06-10T15:56:43;4.50;;;4.20;;
9224;SDS011;4647;48.072;11.616;2023-06-10T15:59:13;5.37;;;4.87;;
9224;SDS011;4647;48.072;11.616;2023-06-10T16:01:44;5.47;;;4.97;;
9224;SDS011;4647;48.072;11.616;2023-06-10T16:04:14;5.30;;;4.80;;
9224;SDS011;4647;48.072;11.616;2023-06-10T16:06:42;5.07;;;4.67;;
9224;SDS011;4647;48.072;11.616;2023-06-10T16:09:16;6.27;;;4.90;;
9224;SDS011;4647;48.072;11.616;2023-06-10T16:11:47;5.10;;;4.70;;
9224;SDS011;4647;48.072;11.616;2023-06-10T16:14:16;6.17;;;5.40;;
9224;SDS011;4647;48.072;11.616;2023-06-10T16:16:46;5.87;;;5.33;;
9224;SDS011;4647;48.072;11.616;2023-06-10T16:19:16;5.70;;;5.20;;
9224;SDS011;4647;48.072;11.616;2023-06-10T16:21:45;5.47;;;5.07;;
9224;SDS011;4647;48.072;11.616;2023-06-10T16:24:13;7.17;;;5.17;;
9224;SDS011;4647;48.072;11.616;2023-06-10T16:26:42;6.50;;;5.37;;
9224;SDS011;4647;48.072;11.616;2023-06-10T16:29:20;5.80;;;5.30;;
9224;SDS011;4647;48.072;11.616;2023-06-10T16:31:49;7.70;;;5.50;;
9224;SDS011;4647;48.072;11.616;2023-06-10T16:34:17;5.90;;;5.40;;
9224;SDS011;4647;48.072;11.616;2023-06-10T16:36:46;6.10;;;5.60;;
9224;SDS011;4647;48.072;11.616;2023-06-10T16:39:14;5.67;;;5.23;;
9224;SDS011;4647;48.072;11.616;2023-06-10T16:41:43;5.83;;;5.27;;
9224;SDS011;4647;48.072;11.616;2023-06-10T16:44:14;5.87;;;5.33;;
9224;SDS011;4647;48.072;11.616;2023-06-10T16:46:45;8.90;;;5.73;;
9224;SDS011;4647;48.072;11.616;2023-06-10T16:49:15;5.40;;;5.00;;
9224;SDS011;4647;48.072;11.616;2023-06-10T16:51:43;5.50;;;5.00;;
9224;SDS011;4647;48.072;11.616;2023-06-10T16:54:12;5.77;;;5.27;;
9224;SDS011;4647;48.072;11.616;2023-06-10T16:56:40;5.10;;;4.70;;
9224;SDS011;4647;48.072;11.616;2023-06-10T16:59:08;5.73;;;5.30;;
9224;SDS011;4647;48.072;11.616;2023-06-10T17:01:37;5.57;;;5.10;;
9224;SDS011;4647;48.072;11.616;2023-06-10T17:04:09;5.10;;;4.70;;
9224;SDS011;4647;48.072;11.616;2023-06-10T17:06:40;5.17;;;4.60;;